createdAt,value
2023-05-10T00:00:19.561Z,54.27
2023-05-10T00:01:21.267Z,53.77
2023-05-10T00:02:22.774Z,53.41
2023-05-10T00:03:24.678Z,53.77
2023-05-10T00:04:28.410Z,53.73
2023-05-10T00:05:32.565Z,53.82
2023-05-10T00:06:36.584Z,53.69
2023-05-10T00:07:38.195Z,53.93
2023-05-10T00:08:39.685Z,53.71
2023-05-10T00:09:41.241Z,53.85
2023-05-10T00:10:42.764Z,53.94
2023-05-10T00:11:44.263Z,53.76
2023-05-10T00:12:45.776Z,53.69
2023-05-10T00:13:47.387Z,53.47
2023-05-10T00:14:48.880Z,53.78
2023-05-10T00:15:50.435Z,54.06
2023-05-10T00:16:52.130Z,54.08
2023-05-10T00:17:53.742Z,54.00
2023-05-10T00:18:55.444Z,53.83
2023-05-10T00:19:57.120Z,53.94
2023-05-10T00:21:01.027Z,54.15
2023-05-10T00:22:02.785Z,53.86
2023-05-10T00:23:04.413Z,53.83
2023-05-10T00:24:06.057Z,53.64
2023-05-10T00:25:07.974Z,53.09
2023-05-10T00:26:09.505Z,52.99
2023-05-10T00:27:13.053Z,53.17
2023-05-10T00:28:14.730Z,53.09
2023-05-10T00:29:16.240Z,52.97
2023-05-10T00:30:18.105Z,52.59
2023-05-10T00:31:22.060Z,52.67
2023-05-10T00:32:23.854Z,52.72
2023-05-10T00:33:27.934Z,52.77
2023-05-10T00:34:29.366Z,52.30
2023-05-10T00:35:33.176Z,52.61
2023-05-10T00:36:37.711Z,52.85
2023-05-10T00:37:39.179Z,52.92
2023-05-10T00:38:41.411Z,53.10
2023-05-10T00:39:42.854Z,52.90
2023-05-10T00:40:44.950Z,52.87
2023-05-10T00:41:53.875Z,52.73
2023-05-10T00:42:55.506Z,52.88
2023-05-10T00:43:57.066Z,53.07
2023-05-10T00:44:58.900Z,53.02
2023-05-10T00:46:03.730Z,53.20
2023-05-10T00:47:05.238Z,53.42
2023-05-10T00:48:06.830Z,53.34
2023-05-10T00:49:10.501Z,53.55
2023-05-10T00:50:12.077Z,54.30
2023-05-10T00:51:14.346Z,54.15
2023-05-10T00:52:18.358Z,54.35
2023-05-10T00:53:19.994Z,54.99
2023-05-10T00:54:21.695Z,54.90
2023-05-10T00:55:23.241Z,54.98
2023-05-10T00:56:25.691Z,55.22
2023-05-10T00:57:27.460Z,54.97
2023-05-10T00:58:29.362Z,55.02
2023-05-10T00:59:31.047Z,55.24
2023-05-10T01:00:35.766Z,55.20
2023-05-10T01:01:39.870Z,55.29
2023-05-10T01:02:41.450Z,55.40
2023-05-10T01:03:43.652Z,55.28
2023-05-10T01:04:48.399Z,55.43
2023-05-10T01:05:50.752Z,56.09
2023-05-10T01:06:54.427Z,55.55
2023-05-10T01:07:57.052Z,55.57
2023-05-10T01:08:58.743Z,55.36
2023-05-10T01:10:00.858Z,55.19
2023-05-10T01:11:03.327Z,55.35
2023-05-10T01:12:07.807Z,55.33
2023-05-10T01:13:10.120Z,55.13
2023-05-10T01:14:18.074Z,55.77
2023-05-10T01:15:21.249Z,55.48
2023-05-10T01:16:23.246Z,55.37
2023-05-10T01:17:25.368Z,55.73
2023-05-10T01:18:27.878Z,55.53
2023-05-10T01:19:30.581Z,55.76
2023-05-10T01:20:37.125Z,55.85
2023-05-10T01:21:43.904Z,56.34
2023-05-10T01:23:04.212Z,56.40
2023-05-10T01:24:29.840Z,56.14
2023-05-10T01:26:04.776Z,56.51
2023-05-10T01:27:24.479Z,56.46
2023-05-10T01:28:38.373Z,56.80
2023-05-10T01:30:14.066Z,56.90
2023-05-10T01:31:37.480Z,56.89
2023-05-10T01:32:48.266Z,56.94
2023-05-10T01:34:10.088Z,57.05
2023-05-10T01:35:20.135Z,57.14
2023-05-10T01:36:28.404Z,57.03
2023-05-10T01:37:50.176Z,57.05
2023-05-10T01:38:54.560Z,56.87
2023-05-10T01:39:59.208Z,57.21
2023-05-10T01:41:19.116Z,56.77
2023-05-10T01:42:41.983Z,56.84
2023-05-10T01:43:46.506Z,56.71
2023-05-10T01:45:08.142Z,56.76
2023-05-10T01:46:20.045Z,56.78
2023-05-10T01:47:26.993Z,56.75
2023-05-10T01:48:29.605Z,56.60
2023-05-10T01:49:33.080Z,56.85
2023-05-10T01:50:36.466Z,56.92
2023-05-10T01:51:45.284Z,56.55
2023-05-10T01:52:51.007Z,56.70
2023-05-10T01:53:57.997Z,56.60
2023-05-10T01:55:17.091Z,56.88
2023-05-10T01:56:24.052Z,56.99
2023-05-10T01:57:28.811Z,56.85
2023-05-10T01:58:32.541Z,56.87
2023-05-10T01:59:37.965Z,56.92
2023-05-10T02:00:42.867Z,56.83
2023-05-10T02:01:46.045Z,57.13
2023-05-10T02:02:49.918Z,57.17
2023-05-10T02:03:53.033Z,57.40
2023-05-10T02:04:56.259Z,57.43
2023-05-10T02:05:58.454Z,57.50
2023-05-10T02:07:00.062Z,57.32
2023-05-10T02:08:04.755Z,57.13
2023-05-10T02:09:06.966Z,57.27
2023-05-10T02:10:09.210Z,57.21
2023-05-10T02:11:13.383Z,57.51
2023-05-10T02:12:16.519Z,57.60
2023-05-10T02:13:19.056Z,57.69
2023-05-10T02:14:21.198Z,57.45
2023-05-10T02:15:24.701Z,57.81
2023-05-10T02:16:28.215Z,57.67
2023-05-10T02:17:31.481Z,57.35
2023-05-10T02:18:34.298Z,57.51
2023-05-10T02:19:41.839Z,57.31
2023-05-10T02:20:46.357Z,57.37
2023-05-10T02:21:48.232Z,57.31
2023-05-10T02:22:51.708Z,57.03
2023-05-10T02:23:54.375Z,57.23
2023-05-10T02:24:56.782Z,56.94
2023-05-10T02:25:59.832Z,57.03
2023-05-10T02:27:03.247Z,56.91
2023-05-10T02:28:06.588Z,56.75
2023-05-10T02:29:09.139Z,56.67
2023-05-10T02:30:11.235Z,56.84
2023-05-10T02:31:13.140Z,56.95
2023-05-10T02:32:15.511Z,57.07
2023-05-10T02:33:17.833Z,57.17
2023-05-10T02:34:22.338Z,57.10
2023-05-10T02:35:24.430Z,57.33
2023-05-10T02:36:28.413Z,56.83
2023-05-10T02:37:29.941Z,56.85
2023-05-10T02:38:32.492Z,56.73
2023-05-10T02:39:34.082Z,56.70
2023-05-10T02:40:36.572Z,56.80
2023-05-10T02:41:38.373Z,56.78
2023-05-10T02:42:43.141Z,56.73
2023-05-10T02:43:50.617Z,56.64
2023-05-10T02:44:54.296Z,56.65
2023-05-10T02:45:55.846Z,56.82
2023-05-10T02:46:58.066Z,56.85
2023-05-10T02:48:00.426Z,56.71
2023-05-10T02:49:02.117Z,56.79
2023-05-10T02:50:04.205Z,57.01
2023-05-10T02:51:09.038Z,57.09
2023-05-10T02:52:11.195Z,57.42
2023-05-10T02:53:17.068Z,57.42
2023-05-10T02:54:28.323Z,57.21
2023-05-10T02:55:33.707Z,57.33
2023-05-10T02:56:36.867Z,57.12
2023-05-10T02:57:41.833Z,57.10
2023-05-10T02:58:43.380Z,57.09
2023-05-10T02:59:46.037Z,57.25
2023-05-10T03:00:49.870Z,57.21
2023-05-10T03:01:51.439Z,57.25
2023-05-10T03:02:53.768Z,57.45
2023-05-10T03:03:55.456Z,57.67
2023-05-10T03:04:57.162Z,57.72
2023-05-10T03:06:01.761Z,57.71
2023-05-10T03:07:03.523Z,57.78
2023-05-10T03:08:05.776Z,57.76
2023-05-10T03:09:08.759Z,57.89
2023-05-10T03:10:11.758Z,57.56
2023-05-10T03:11:15.499Z,58.21
2023-05-10T03:12:17.164Z,57.70
2023-05-10T03:13:24.546Z,57.69
2023-05-10T03:14:32.128Z,57.58
2023-05-10T03:15:36.538Z,57.62
2023-05-10T03:16:47.995Z,57.85
2023-05-10T03:18:18.621Z,57.81
2023-05-10T03:19:28.566Z,57.49
2023-05-10T03:20:36.263Z,56.41
2023-05-10T03:21:39.058Z,55.76
2023-05-10T03:22:48.773Z,55.94
2023-05-10T03:24:00.313Z,55.60
2023-05-10T03:25:05.394Z,55.76
2023-05-10T03:26:07.407Z,55.64
2023-05-10T03:27:09.300Z,55.90
2023-05-10T03:28:11.357Z,56.21
2023-05-10T03:29:14.835Z,55.74
2023-05-10T03:30:17.414Z,55.55
2023-05-10T03:31:19.582Z,55.44
2023-05-10T03:32:23.556Z,55.32
2023-05-10T03:33:25.288Z,55.39
2023-05-10T03:34:27.002Z,55.48
2023-05-10T03:35:28.624Z,55.20
2023-05-10T03:36:30.187Z,55.29
2023-05-10T03:37:35.010Z,55.45
2023-05-10T03:38:36.716Z,55.70
2023-05-10T03:39:38.390Z,55.36
2023-05-10T03:40:42.324Z,55.31
2023-05-10T03:41:46.470Z,55.48
2023-05-10T03:42:47.982Z,55.38
2023-05-10T03:43:49.533Z,55.66
2023-05-10T03:44:51.184Z,55.80
2023-05-10T03:45:52.792Z,55.73
2023-05-10T03:46:54.571Z,55.67
2023-05-10T03:47:56.307Z,55.90
2023-05-10T03:48:57.818Z,55.53
2023-05-10T03:50:01.453Z,55.68
2023-05-10T03:51:03.122Z,55.45
2023-05-10T03:52:06.292Z,55.44
2023-05-10T03:53:07.872Z,55.37
2023-05-10T03:54:09.475Z,55.60
2023-05-10T03:55:13.571Z,55.72
2023-05-10T03:56:15.034Z,55.54
2023-05-10T03:57:16.603Z,55.64
2023-05-10T03:58:18.175Z,55.46
2023-05-10T03:59:19.693Z,55.33
2023-05-10T04:00:21.449Z,55.39
2023-05-10T04:01:26.008Z,55.40
2023-05-10T04:02:27.829Z,54.66
2023-05-10T04:03:29.606Z,54.78
2023-05-10T04:04:31.390Z,54.53
2023-05-10T04:05:33.477Z,54.81
2023-05-10T04:06:35.132Z,54.73
2023-05-10T04:07:37.062Z,54.84
2023-05-10T04:08:38.931Z,54.97
2023-05-10T04:09:41.780Z,54.94
2023-05-10T04:10:43.321Z,54.90
2023-05-10T04:11:44.822Z,54.74
2023-05-10T04:12:46.367Z,54.44
2023-05-10T04:13:47.890Z,53.78
2023-05-10T04:14:49.380Z,54.11
2023-05-10T04:15:50.873Z,54.15
2023-05-10T04:16:52.349Z,54.03
2023-05-10T04:17:54.571Z,54.51
2023-05-10T04:18:56.244Z,54.47
2023-05-10T04:19:57.812Z,54.67
2023-05-10T04:21:01.702Z,54.69
2023-05-10T04:22:03.428Z,54.79
2023-05-10T04:23:07.228Z,54.91
2023-05-10T04:24:08.691Z,55.28
2023-05-10T04:25:10.374Z,54.98
2023-05-10T04:26:11.817Z,54.96
2023-05-10T04:27:15.411Z,54.77
2023-05-10T04:28:16.995Z,54.73
2023-05-10T04:29:21.377Z,54.57
2023-05-10T04:32:45.789Z,53.70
2023-05-10T04:33:47.457Z,53.99
2023-05-10T04:34:54.590Z,54.26
2023-05-10T04:35:56.157Z,53.78
2023-05-10T04:36:57.648Z,53.99
2023-05-10T04:37:59.167Z,53.67
2023-05-10T04:39:00.710Z,53.68
2023-05-10T04:40:02.213Z,53.56
2023-05-10T04:41:10.466Z,53.40
2023-05-10T04:42:12.420Z,53.85
2023-05-10T04:43:14.118Z,53.68
2023-05-10T04:44:20.026Z,53.66
2023-05-10T04:45:21.606Z,53.80
2023-05-10T04:46:23.181Z,53.34
2023-05-10T04:47:24.786Z,53.49
2023-05-10T04:48:26.643Z,53.42
2023-05-10T04:49:28.219Z,53.42
2023-05-10T04:50:29.733Z,53.62
2023-05-10T04:51:32.290Z,53.55
2023-05-10T04:52:33.768Z,53.52
2023-05-10T04:53:35.286Z,53.59
2023-05-10T04:54:36.795Z,53.58
2023-05-10T04:55:38.309Z,53.78
2023-05-10T04:56:39.786Z,53.67
2023-05-10T04:57:41.301Z,53.23
2023-05-10T04:58:42.836Z,52.98
2023-05-10T04:59:44.337Z,52.95
2023-05-10T05:00:45.908Z,53.14
2023-05-10T05:01:49.881Z,53.02
2023-05-10T05:02:51.426Z,53.41
2023-05-10T05:03:53.979Z,53.56
2023-05-10T05:04:56.897Z,53.61
2023-05-10T05:05:58.402Z,53.59
2023-05-10T05:06:59.977Z,53.23
2023-05-10T05:08:01.759Z,53.26
2023-05-10T05:09:03.554Z,53.32
2023-05-10T05:10:10.803Z,53.29
2023-05-10T05:11:14.749Z,53.51
2023-05-10T05:12:16.250Z,54.18
2023-05-10T05:13:17.914Z,53.71
2023-05-10T05:14:21.786Z,53.20
2023-05-10T05:15:23.358Z,53.01
2023-05-10T05:16:24.908Z,52.30
2023-05-10T05:17:26.713Z,53.21
2023-05-10T05:18:28.188Z,53.22
2023-05-10T05:19:31.840Z,53.11
2023-05-10T05:20:35.904Z,52.84
2023-05-10T05:21:40.704Z,52.37
2023-05-10T05:22:44.656Z,52.46
2023-05-10T05:23:46.646Z,52.46
2023-05-10T05:24:48.134Z,51.78
2023-05-10T05:25:49.585Z,51.99
2023-05-10T05:26:51.088Z,51.80
2023-05-10T05:27:52.603Z,52.00
2023-05-10T05:28:55.567Z,51.38
2023-05-10T05:29:57.716Z,51.45
2023-05-10T05:30:59.183Z,51.49
2023-05-10T05:32:00.872Z,51.12
2023-05-10T05:33:02.455Z,51.60
2023-05-10T05:34:04.012Z,51.52
2023-05-10T05:35:06.810Z,51.28
2023-05-10T05:36:08.452Z,50.87
2023-05-10T05:37:13.291Z,50.30
2023-05-10T05:38:15.122Z,50.20
2023-05-10T05:39:16.869Z,49.68
2023-05-10T05:40:21.445Z,50.00
2023-05-10T05:41:23.428Z,49.78
2023-05-10T05:42:24.982Z,49.95
2023-05-10T05:43:26.659Z,49.48
2023-05-10T05:44:29.836Z,49.33
2023-05-10T05:45:31.432Z,49.55
2023-05-10T05:46:32.954Z,49.80
2023-05-10T05:47:34.584Z,50.22
2023-05-10T05:48:38.258Z,50.32
2023-05-10T05:49:40.315Z,49.79
2023-05-10T05:50:41.876Z,49.54
2023-05-10T05:51:45.949Z,49.54
2023-05-10T05:52:47.458Z,50.42
2023-05-10T05:53:48.987Z,50.51
2023-05-10T05:54:50.461Z,50.21
2023-05-10T05:55:53.113Z,50.17
2023-05-10T05:56:56.330Z,50.01
2023-05-10T05:57:58.192Z,49.89
2023-05-10T05:58:59.694Z,49.87
2023-05-10T06:00:01.364Z,50.45
2023-05-10T06:01:05.194Z,50.67
2023-05-10T06:02:09.823Z,50.93
2023-05-10T06:03:11.677Z,50.71
2023-05-10T06:04:18.433Z,50.50
2023-05-10T06:05:22.735Z,50.46
2023-05-10T06:06:26.918Z,50.34
2023-05-10T06:07:28.464Z,50.50
2023-05-10T06:08:29.969Z,50.99
2023-05-10T06:09:31.608Z,50.85
2023-05-10T06:10:35.475Z,51.03
2023-05-10T06:11:37.427Z,51.07
2023-05-10T06:12:39.001Z,50.67
2023-05-10T06:13:40.557Z,50.59
2023-05-10T06:14:42.214Z,50.04
2023-05-10T06:15:43.891Z,50.32
2023-05-10T06:16:45.815Z,50.82
2023-05-10T06:17:48.238Z,50.91
2023-05-10T06:18:49.911Z,50.86
2023-05-10T06:19:54.111Z,50.70
2023-05-10T06:20:55.626Z,50.46
2023-05-10T06:21:57.281Z,50.41
2023-05-10T06:22:59.169Z,50.56
2023-05-10T06:24:00.758Z,50.98
2023-05-10T06:25:03.103Z,51.41
2023-05-10T06:26:04.861Z,51.61
2023-05-10T06:27:06.923Z,51.31
2023-05-10T06:28:08.450Z,51.23
2023-05-10T06:29:09.926Z,51.02
2023-05-10T06:30:16.171Z,51.03
2023-05-10T06:31:18.182Z,51.28
2023-05-10T06:32:19.701Z,51.07
2023-05-10T06:33:21.147Z,51.37
2023-05-10T06:34:22.703Z,51.27
2023-05-10T06:35:24.278Z,51.50
2023-05-10T06:36:27.289Z,51.09
2023-05-10T06:37:32.581Z,50.99
2023-05-10T06:38:36.509Z,51.13
2023-05-10T06:39:37.940Z,50.52
2023-05-10T06:40:44.823Z,50.34
2023-05-10T06:41:48.554Z,50.66
2023-05-10T06:42:50.150Z,50.45
2023-05-10T06:43:52.763Z,50.15
2023-05-10T06:44:54.265Z,50.28
2023-05-10T06:45:55.959Z,50.88
2023-05-10T06:46:57.571Z,51.25
2023-05-10T06:47:59.255Z,51.18
2023-05-10T06:49:00.904Z,51.39
2023-05-10T06:50:04.916Z,51.20
2023-05-10T06:51:06.603Z,51.52
2023-05-10T06:52:08.717Z,50.99
2023-05-10T06:53:10.386Z,51.12
2023-05-10T06:54:11.814Z,50.92
2023-05-10T06:55:13.504Z,51.10
2023-05-10T06:56:15.559Z,50.84
2023-05-10T06:57:30.545Z,50.84
2023-05-10T06:58:33.749Z,50.72
2023-05-10T06:59:35.457Z,51.17
2023-05-10T07:00:41.299Z,51.16
2023-05-10T07:01:43.085Z,51.15
2023-05-10T07:02:44.805Z,50.94
2023-05-10T07:03:46.426Z,50.97
2023-05-10T07:04:48.403Z,51.30
2023-05-10T07:05:49.918Z,51.48
2023-05-10T07:06:51.660Z,52.03
2023-05-10T07:07:53.228Z,51.79
2023-05-10T07:08:54.856Z,51.76
2023-05-10T07:09:57.522Z,51.63
2023-05-10T07:11:05.697Z,51.24
2023-05-10T07:12:10.268Z,51.23
2023-05-10T07:13:12.778Z,49.58
2023-05-10T07:14:14.372Z,50.19
2023-05-10T07:15:17.230Z,49.86
2023-05-10T07:16:19.090Z,49.56
2023-05-10T07:17:20.703Z,49.25
2023-05-10T07:18:25.831Z,49.54
2023-05-10T07:19:27.547Z,50.02
2023-05-10T07:20:29.077Z,50.12
2023-05-10T07:21:30.799Z,50.01
2023-05-10T07:22:32.312Z,49.95
2023-05-10T07:23:33.892Z,49.95
2023-05-10T07:24:35.463Z,49.53
2023-05-10T07:25:39.180Z,49.55
2023-05-10T07:26:43.159Z,48.71
2023-05-10T07:27:49.408Z,48.70
2023-05-10T07:28:51.117Z,49.19
2023-05-10T07:29:52.614Z,49.75
2023-05-10T07:30:54.133Z,49.83
2023-05-10T07:31:58.499Z,48.99
2023-05-10T07:33:00.580Z,48.68
2023-05-10T07:34:02.198Z,48.49
2023-05-10T07:35:04.334Z,48.28
2023-05-10T07:36:05.891Z,48.27
2023-05-10T07:37:12.504Z,48.70
2023-05-10T07:38:14.008Z,50.16
2023-05-10T07:39:21.353Z,50.32
2023-05-10T07:40:31.268Z,50.14
2023-05-10T07:41:35.106Z,50.11
2023-05-10T07:42:37.247Z,50.15
2023-05-10T07:43:38.964Z,50.20
2023-05-10T07:44:40.417Z,49.46
2023-05-10T07:45:42.069Z,48.65
2023-05-10T07:46:43.660Z,48.95
2023-05-10T07:47:45.145Z,49.16
2023-05-10T07:48:49.002Z,48.90
2023-05-10T07:49:50.499Z,48.93
2023-05-10T07:50:52.047Z,48.99
2023-05-10T07:51:53.548Z,50.13
2023-05-10T07:52:55.386Z,49.42
2023-05-10T07:53:57.871Z,49.49
2023-05-10T07:54:59.415Z,48.99
2023-05-10T07:56:20.671Z,48.57
2023-05-10T07:57:22.155Z,48.49
2023-05-10T07:58:23.661Z,48.26
2023-05-10T07:59:25.376Z,47.06
2023-05-10T08:00:26.809Z,47.60
2023-05-10T08:01:31.614Z,46.53
2023-05-10T08:02:36.156Z,45.06
2023-05-10T08:03:37.786Z,46.10
2023-05-10T08:04:41.797Z,46.06
2023-05-10T08:05:43.513Z,46.20
2023-05-10T08:06:44.970Z,45.71
2023-05-10T08:07:46.413Z,45.46
2023-05-10T08:08:50.461Z,45.77
2023-05-10T08:09:51.983Z,45.33
2023-05-10T08:10:53.423Z,45.57
2023-05-10T08:11:55.018Z,45.34
2023-05-10T08:12:59.722Z,45.83
2023-05-10T08:14:01.224Z,45.83
2023-05-10T08:15:02.945Z,45.51
2023-05-10T08:16:04.500Z,44.90
2023-05-10T08:17:06.274Z,45.33
2023-05-10T08:18:07.891Z,45.14
2023-05-10T08:19:09.624Z,44.99
2023-05-10T08:20:13.893Z,45.24
2023-05-10T08:21:15.924Z,45.62
2023-05-10T08:22:17.539Z,45.73
2023-05-10T08:23:21.607Z,44.73
2023-05-10T08:24:23.365Z,44.83
2023-05-10T08:25:25.136Z,43.24
2023-05-10T08:26:28.977Z,43.33
2023-05-10T08:27:30.754Z,43.26
2023-05-10T08:28:32.247Z,44.52
2023-05-10T08:29:46.251Z,43.60
2023-05-10T08:30:51.456Z,44.31
2023-05-10T08:31:52.934Z,44.27
2023-05-10T08:32:54.579Z,44.27
2023-05-10T08:33:58.330Z,44.21
2023-05-10T08:34:59.765Z,44.65
2023-05-10T08:36:01.240Z,45.11
2023-05-10T08:37:02.793Z,45.16
2023-05-10T08:38:04.401Z,45.26
2023-05-10T08:39:11.200Z,45.69
2023-05-10T08:40:20.020Z,46.30
2023-05-10T08:41:22.376Z,46.43
2023-05-10T08:42:26.833Z,46.16
2023-05-10T08:43:32.535Z,46.77
2023-05-10T08:44:36.172Z,46.89
2023-05-10T08:45:41.800Z,46.67
2023-05-10T08:46:45.870Z,46.72
2023-05-10T08:47:49.851Z,47.02
2023-05-10T08:48:53.023Z,46.54
2023-05-10T08:49:55.267Z,46.10
2023-05-10T08:50:58.620Z,45.61
2023-05-10T08:52:02.932Z,45.45
2023-05-10T08:53:16.574Z,46.49
2023-05-10T08:54:18.383Z,47.02
2023-05-10T08:55:19.984Z,46.17
2023-05-10T08:56:21.927Z,46.36
2023-05-10T08:57:23.517Z,46.86
2023-05-10T08:58:27.466Z,47.22
2023-05-10T08:59:32.053Z,47.06
2023-05-10T09:00:34.106Z,46.51
2023-05-10T09:01:37.480Z,46.25
2023-05-10T09:02:39.154Z,45.89
2023-05-10T09:03:44.137Z,46.16
2023-05-10T09:04:45.853Z,45.47
2023-05-10T09:05:47.813Z,45.73
2023-05-10T09:06:49.366Z,44.91
2023-05-10T09:07:53.013Z,45.52
2023-05-10T09:08:54.752Z,44.28
2023-05-10T09:09:56.526Z,45.14
2023-05-10T09:10:58.208Z,45.10
2023-05-10T09:11:59.836Z,45.08
2023-05-10T09:13:04.502Z,44.96
2023-05-10T09:14:06.034Z,44.62
2023-05-10T09:15:08.875Z,44.01
2023-05-10T09:16:21.090Z,44.08
2023-05-10T09:17:24.841Z,44.51
2023-05-10T09:18:28.737Z,44.66
2023-05-10T09:19:30.373Z,44.22
2023-05-10T09:20:32.197Z,43.18
2023-05-10T09:21:34.964Z,44.66
2023-05-10T09:22:36.704Z,44.52
2023-05-10T09:23:38.174Z,44.17
2023-05-10T09:24:43.408Z,44.10
2023-05-10T09:25:47.471Z,44.10
2023-05-10T09:26:49.524Z,43.76
2023-05-10T09:27:51.144Z,44.21
2023-05-10T09:28:52.565Z,43.60
2023-05-10T09:29:56.747Z,43.32
2023-05-10T09:30:58.445Z,43.44
2023-05-10T09:32:00.132Z,44.06
2023-05-10T09:33:04.562Z,44.10
2023-05-10T09:34:06.557Z,43.35
2023-05-10T09:35:12.264Z,44.34
2023-05-10T09:36:14.351Z,44.37
2023-05-10T09:37:15.903Z,45.19
2023-05-10T09:38:17.399Z,44.99
2023-05-10T09:39:19.040Z,45.00
2023-05-10T09:40:21.548Z,44.56
2023-05-10T09:41:24.123Z,43.60
2023-05-10T09:42:25.599Z,44.04
2023-05-10T09:43:28.207Z,44.38
2023-05-10T09:44:29.793Z,44.91
2023-05-10T09:45:37.002Z,44.95
2023-05-10T09:46:40.296Z,46.22
2023-05-10T09:47:41.900Z,46.23
2023-05-10T09:48:44.974Z,45.72
2023-05-10T09:49:53.599Z,45.84
2023-05-10T09:50:58.326Z,45.41
2023-05-10T09:52:03.909Z,45.01
2023-05-10T09:53:05.541Z,45.07
2023-05-10T09:54:16.784Z,45.23
2023-05-10T09:55:38.241Z,45.29
2023-05-10T09:56:41.404Z,44.95
2023-05-10T09:57:43.010Z,42.74
2023-05-10T09:58:44.620Z,43.67
2023-05-10T09:59:46.224Z,44.03
2023-05-10T10:00:52.518Z,44.00
2023-05-10T10:01:56.652Z,43.34
2023-05-10T10:02:59.501Z,42.33
2023-05-10T10:04:03.751Z,42.62
2023-05-10T10:05:09.886Z,43.11
2023-05-10T10:06:22.885Z,43.39
2023-05-10T10:07:31.341Z,43.50
2023-05-10T10:08:35.901Z,43.95
2023-05-10T10:09:37.582Z,43.52
2023-05-10T10:10:41.114Z,43.10
2023-05-10T10:11:42.622Z,42.36
2023-05-10T10:12:45.515Z,42.11
2023-05-10T10:13:49.831Z,41.53
2023-05-10T10:14:51.872Z,41.75
2023-05-10T10:15:55.280Z,42.28
2023-05-10T10:17:07.270Z,42.81
2023-05-10T10:18:16.677Z,42.98
2023-05-10T10:19:21.885Z,42.53
2023-05-10T10:20:23.663Z,42.41
2023-05-10T10:21:27.770Z,42.98
2023-05-10T10:22:29.465Z,42.87
2023-05-10T10:23:31.156Z,42.07
2023-05-10T10:24:32.749Z,42.01
2023-05-10T10:25:34.391Z,42.43
2023-05-10T10:26:37.203Z,43.11
2023-05-10T10:27:54.086Z,42.72
2023-05-10T10:28:55.656Z,41.97
2023-05-10T10:29:57.323Z,41.22
2023-05-10T10:31:04.752Z,41.43
2023-05-10T10:32:25.117Z,42.05
2023-05-10T10:33:28.722Z,42.64
2023-05-10T10:34:33.394Z,42.93
2023-05-10T10:35:35.351Z,41.88
2023-05-10T10:36:46.723Z,42.36
2023-05-10T10:37:48.958Z,42.80
2023-05-10T10:38:54.414Z,42.46
2023-05-10T10:39:56.356Z,41.15
2023-05-10T10:41:08.860Z,41.08
2023-05-10T10:42:12.831Z,41.05
2023-05-10T10:43:23.083Z,41.43
2023-05-10T10:44:25.978Z,41.48
2023-05-10T10:45:27.842Z,41.48
2023-05-10T10:46:29.376Z,41.39
2023-05-10T10:47:34.019Z,41.08
2023-05-10T10:48:36.792Z,41.51
2023-05-10T10:49:39.436Z,41.09
2023-05-10T10:50:47.761Z,39.81
2023-05-10T10:52:07.985Z,41.45
2023-05-10T10:53:12.927Z,40.86
2023-05-10T10:54:27.772Z,41.37
2023-05-10T10:55:30.880Z,41.29
2023-05-10T10:56:32.427Z,41.14
2023-05-10T10:57:43.024Z,41.05
2023-05-10T10:58:51.080Z,40.39
2023-05-10T11:00:13.346Z,40.78
2023-05-10T11:01:16.302Z,39.56
2023-05-10T11:02:36.502Z,40.07
2023-05-10T11:03:40.794Z,38.95
2023-05-10T11:04:44.036Z,39.33
2023-05-10T11:05:49.522Z,39.28
2023-05-10T11:06:50.988Z,38.04
2023-05-10T11:08:07.265Z,36.92
2023-05-10T11:09:09.960Z,36.62
2023-05-10T11:10:11.903Z,37.76
2023-05-10T11:11:15.619Z,37.40
2023-05-10T11:12:17.210Z,37.67
2023-05-10T11:13:27.508Z,37.91
2023-05-10T11:14:32.600Z,38.46
2023-05-10T11:15:37.853Z,38.52
2023-05-10T11:16:45.936Z,38.73
2023-05-10T11:17:52.898Z,38.53
2023-05-10T11:18:55.058Z,38.58
2023-05-10T11:20:11.943Z,37.69
2023-05-10T11:21:16.229Z,37.56
2023-05-10T11:22:18.976Z,38.66
2023-05-10T11:23:22.027Z,39.83
2023-05-10T11:24:24.057Z,39.53
2023-05-10T11:25:29.281Z,39.84
2023-05-10T11:26:36.074Z,38.88
2023-05-10T11:27:38.501Z,37.72
2023-05-10T11:28:49.784Z,37.15
2023-05-10T11:29:54.219Z,37.34
2023-05-10T11:30:55.920Z,37.47
2023-05-10T11:32:03.264Z,37.24
2023-05-10T11:33:04.886Z,36.67
2023-05-10T11:34:06.464Z,35.44
2023-05-10T11:35:08.950Z,36.15
2023-05-10T11:36:17.641Z,36.31
2023-05-10T11:37:19.092Z,36.59
2023-05-10T11:38:22.884Z,36.69
2023-05-10T11:39:31.010Z,36.30
2023-05-10T11:40:32.451Z,36.69
2023-05-10T11:41:34.273Z,36.66
2023-05-10T11:42:39.561Z,36.79
2023-05-10T11:43:41.417Z,37.11
2023-05-10T11:44:44.380Z,36.91
2023-05-10T11:45:46.030Z,37.39
2023-05-10T11:46:47.611Z,37.38
2023-05-10T11:47:49.853Z,37.03
2023-05-10T11:49:01.612Z,36.48
2023-05-10T11:50:06.216Z,36.84
2023-05-10T11:51:08.454Z,36.81
2023-05-10T11:52:13.092Z,37.05
2023-05-10T11:53:14.537Z,36.62
2023-05-10T11:54:16.020Z,35.46
2023-05-10T11:55:17.488Z,36.02
2023-05-10T11:56:19.094Z,36.05
2023-05-10T11:57:27.123Z,35.63
2023-05-10T11:58:31.314Z,37.19
2023-05-10T11:59:32.912Z,35.71
2023-05-10T12:00:34.661Z,36.33
2023-05-10T12:01:38.548Z,36.48
2023-05-10T12:02:40.299Z,35.71
2023-05-10T12:03:42.188Z,35.42
2023-05-10T12:04:46.054Z,36.27
2023-05-10T12:05:47.667Z,36.08
2023-05-10T12:06:49.320Z,35.60
2023-05-10T12:07:51.110Z,35.37
2023-05-10T12:08:54.552Z,34.90
2023-05-10T12:10:04.796Z,35.84
2023-05-10T12:11:11.424Z,35.94
2023-05-10T12:12:18.956Z,35.93
2023-05-10T12:13:21.971Z,35.92
2023-05-10T12:14:23.633Z,35.33
2023-05-10T12:15:25.999Z,35.56
2023-05-10T12:16:30.212Z,35.24
2023-05-10T12:17:31.993Z,35.27
2023-05-10T12:18:33.627Z,34.95
2023-05-10T12:19:39.582Z,34.75
2023-05-10T12:20:41.574Z,35.39
2023-05-10T12:21:45.632Z,34.56
2023-05-10T12:22:54.158Z,35.01
2023-05-10T12:24:06.394Z,34.45
2023-05-10T12:25:09.306Z,34.16
2023-05-10T12:26:13.750Z,33.67
2023-05-10T12:27:15.720Z,34.15
2023-05-10T12:28:20.034Z,34.23
2023-05-10T12:29:21.868Z,34.79
2023-05-10T12:30:24.161Z,34.55
2023-05-10T12:31:25.618Z,34.75
2023-05-10T12:32:42.715Z,34.27
2023-05-10T12:33:50.295Z,34.37
2023-05-10T12:34:53.399Z,33.38
2023-05-10T12:35:55.613Z,33.48
2023-05-10T12:36:57.118Z,33.42
2023-05-10T12:37:58.658Z,33.31
2023-05-10T12:39:03.635Z,32.32
2023-05-10T12:40:09.101Z,32.71
2023-05-10T12:41:11.756Z,32.65
2023-05-10T12:42:13.341Z,33.07
2023-05-10T12:43:14.772Z,33.38
2023-05-10T12:44:16.238Z,33.01
2023-05-10T12:45:18.485Z,30.34
2023-05-10T12:46:20.051Z,31.07
2023-05-10T12:47:21.529Z,30.93
2023-05-10T12:48:23.349Z,32.04
2023-05-10T12:49:27.562Z,32.30
2023-05-10T12:50:29.060Z,32.59
2023-05-10T12:51:32.913Z,32.15
2023-05-10T12:52:36.546Z,32.58
2023-05-10T12:53:38.235Z,33.04
2023-05-10T12:54:39.912Z,32.87
2023-05-10T12:55:42.582Z,33.80
2023-05-10T12:56:44.304Z,33.72
2023-05-10T12:57:45.857Z,34.28
2023-05-10T12:58:49.138Z,33.50
2023-05-10T12:59:50.792Z,33.53
2023-05-10T13:00:52.948Z,32.71
2023-05-10T13:01:56.682Z,32.05
2023-05-10T13:02:58.139Z,32.18
2023-05-10T13:04:01.054Z,32.37
2023-05-10T13:05:02.549Z,32.65
2023-05-10T13:06:04.127Z,32.70
2023-05-10T13:07:06.084Z,31.45
2023-05-10T13:08:07.569Z,32.30
2023-05-10T13:09:09.023Z,32.66
2023-05-10T13:10:10.717Z,32.97
2023-05-10T13:11:12.264Z,33.13
2023-05-10T13:12:13.763Z,33.17
2023-05-10T13:13:16.177Z,33.25
2023-05-10T13:14:17.648Z,32.60
2023-05-10T13:15:19.119Z,32.73
2023-05-10T13:16:20.731Z,32.75
2023-05-10T13:17:22.224Z,31.75
2023-05-10T13:18:23.789Z,32.80
2023-05-10T13:19:25.470Z,32.88
2023-05-10T13:20:27.413Z,33.00
2023-05-10T13:21:29.258Z,33.29
2023-05-10T13:22:39.825Z,32.97
2023-05-10T13:23:41.899Z,33.00
2023-05-10T13:24:43.333Z,32.70
2023-05-10T13:25:47.314Z,33.95
2023-05-10T13:26:49.414Z,33.72
2023-05-10T13:27:55.712Z,33.80
2023-05-10T13:28:57.264Z,34.11
2023-05-10T13:30:00.271Z,34.60
2023-05-10T13:31:01.861Z,34.75
2023-05-10T13:32:03.433Z,35.26
2023-05-10T13:33:04.944Z,35.07
2023-05-10T13:34:06.425Z,36.19
2023-05-10T13:35:08.589Z,36.88
2023-05-10T13:36:10.036Z,36.69
2023-05-10T13:37:11.495Z,37.12
2023-05-10T13:38:15.860Z,37.32
2023-05-10T13:39:17.758Z,37.66
2023-05-10T13:40:19.396Z,37.53
2023-05-10T13:41:21.039Z,37.85
2023-05-10T13:42:25.456Z,38.48